Etusivu
METAR-TAF:

METAR-TAF

Lentoasemat :

Mannheim, Saksa

Leveyspiiri: 49-28-21N, Pituuspiiri: 008-30-56E, korkeus merenpinnasta: 100 m

Tämänhetkinen sää

Tämä raportti tehtiin 22 minuuttia sitten, kello 11.50 UTC
Tuuli 9 kn lännestä/lounaasta, vaihdellen etelän/lounaan ja lännen välillä
Lämpötila 16°C
Kosteus 51%
Ilmanpaine 1009 hPa
Näkyvyys 10 km tai enemmän
Hajonneita pilviä 4500 ft:n korkeudessa
Hajonneita pilviä 8000 ft:n korkeudessa

METAR: EDFM 111150Z 24009KT 210V280 9999 BKN045 BKN080 16/06 Q1009

Aika: 14:12 (12:12 UTC)


TAF: puuttuu

Säähavainnot ja -ennusteet yli 4000 lentoasemalta (METAR- ja TAF-raportit).

Käytössä olevat sääasemat on merkitty karttaan keltaisilla ja punaisilla pisteillä.

Aseta hiiri pisteen päälle nähdäksesi sääaseman nimen.

Klikkaa sitten nähdäksesi säähavainnot ja -ennusteet.

Kartan vaihtaminen: klikkaa mustalla rastilla varustettuja vihreitä pisteitä, niin voit zoomata sisään; viivalla varustettua vihreää pistettä, niin voit zoomata ulos tai vihreitä nuolia, niin pääset viereisille kartoille.


METAR-TAF: